Time;durP1;ratioP1;P1;durP2;ratioP2;P2;SDS_P1;SDS_P2;PMS_P1;PMS_P2;Temp;Humidity;BMP_temperature;BMP_pressure;BME280_temperature;BME280_humidity;BME280_pressure;Samples;Min_cycle;Max_cycle;Signal;HPM_P1;HPM_P2
2023/10/22 00:36:55;;;;;;;2.50;1.00;;;;;;;11.35;100.00;95569.06;5034908;27;103973;-79
2023/10/22 00:39:22;;;;;;;0.87;0.87;;;;;;;11.34;100.00;95569.38;5049467;27;101753;-79
2023/10/22 00:41:49;;;;;;;1.10;1.00;;;;;;;11.37;100.00;95564.28;5048263;27;105400;-79
2023/10/22 00:44:16;;;;;;;2.20;0.83;;;;;;;11.40;100.00;95570.94;5050020;27;102917;-79
2023/10/22 00:46:45;;;;;;;2.10;0.90;;;;;;;11.42;100.00;95563.44;5049098;27;102033;-79
2023/10/22 00:49:13;;;;;;;1.50;1.27;;;;;;;11.40;100.00;95563.72;5049259;27;103651;-79
2023/10/22 00:51:41;;;;;;;0.70;0.70;;;;;;;11.41;100.00;95565.34;5048643;27;105628;-79
2023/10/22 00:54:10;;;;;;;0.50;0.50;;;;;;;11.38;100.00;95565.88;5052524;27;101859;-79
2023/10/22 00:56:38;;;;;;;0.70;0.70;;;;;;;11.36;100.00;95572.53;5048535;27;105537;-79
2023/10/22 00:59:05;;;;;;;1.40;0.53;;;;;;;11.36;100.00;95577.88;5049118;27;102034;-79
2023/10/22 01:01:32;;;;;;;0.83;0.50;;;;;;;11.33;100.00;95583.75;5048821;27;105086;-79
2023/10/22 01:03:59;;;;;;;1.53;1.30;;;;;;;11.27;100.00;95587.47;5048097;27;104143;-78
2023/10/22 01:06:27;;;;;;;2.50;2.30;;;;;;;11.33;100.00;95583.75;5048946;27;101966;-79
2023/10/22 01:08:55;;;;;;;3.10;1.90;;;;;;;11.31;100.00;95583.22;5049187;27;105715;-80
2023/10/22 01:11:23;;;;;;;1.67;1.20;;;;;;;11.17;100.00;95582.22;5048295;27;104467;-80
2023/10/22 01:13:59;;;;;;;1.30;1.10;;;;;;;11.22;100.00;95576.84;5048936;27;102026;-77
2023/10/22 01:16:39;;;;;;;1.30;1.07;;;;;;;11.32;100.00;95580.28;5053099;27;102943;-77
2023/10/22 01:19:11;;;;;;;0.70;0.70;;;;;;;11.22;100.00;95587.50;5047937;27;101915;-77
2023/10/22 01:21:46;;;;;;;0.73;0.63;;;;;;;11.11;100.00;95588.63;5048825;27;105452;-77
2023/10/22 01:24:17;;;;;;;0.83;0.70;;;;;;;11.05;100.00;95582.53;5048151;27;105590;-78
2023/10/22 01:26:49;;;;;;;0.70;0.70;;;;;;;11.20;100.00;95587.78;5048981;27;101995;-78
2023/10/22 01:29:21;;;;;;;2.00;0.60;;;;;;;11.18;100.00;95581.94;5048809;27;105077;-78
2023/10/22 01:31:51;;;;;;;0.70;0.70;;;;;;;11.22;100.00;95585.66;5049497;27;102792;-78
2023/10/22 01:34:28;;;;;;;0.60;0.60;;;;;;;11.05;100.00;95581.72;5048773;27;101840;-78
2023/10/22 01:37:05;;;;;;;0.50;0.50;;;;;;;11.14;100.00;95586.22;5048058;27;105739;-78
2023/10/22 01:39:54;;;;;;;1.67;0.80;;;;;;;11.19;100.00;95591.53;5053004;27;102779;-78
2023/10/22 01:42:28;;;;;;;0.97;0.70;;;;;;;11.22;100.00;95582.19;5049956;27;102573;-77
2023/10/22 01:44:55;;;;;;;1.57;0.80;;;;;;;11.20;100.00;95579.81;5047846;27;105766;-78
2023/10/22 01:47:22;;;;;;;0.60;0.60;;;;;;;11.19;100.00;95580.09;5048698;27;101963;-78
2023/10/22 01:49:49;;;;;;;0.87;0.70;;;;;;;11.15;100.00;95579.03;5048401;27;105216;-78
2023/10/22 01:52:18;;;;;;;0.60;0.60;;;;;;;11.14;100.00;95582.75;5048789;27;105825;-77
2023/10/22 01:54:47;;;;;;;1.93;0.70;;;;;;;11.12;100.00;95580.38;5051992;27;101947;-77
2023/10/22 01:57:33;;;;;;;0.80;0.63;;;;;;;11.11;100.00;95580.63;5052030;27;104941;-77
2023/10/22 02:00:27;;;;;;;1.80;0.60;;;;;;;11.05;100.00;95576.41;5054212;27;105227;-78
2023/10/22 02:03:04;;;;;;;1.13;0.50;;;;;;;11.05;100.00;95576.41;5051674;27;105466;-77
2023/10/22 02:05:51;;;;;;;0.50;0.50;;;;;;;11.01;100.00;95576.16;5051151;27;103824;-77
2023/10/22 02:08:32;;;;;;;0.50;0.50;;;;;;;11.00;100.00;95585.22;5051917;27;101885;-78
2023/10/22 02:11:03;;;;;;;0.60;0.60;;;;;;;10.91;100.00;95588.72;5051763;27;104889;-78
2023/10/22 02:13:32;;;;;;;0.57;0.53;;;;;;;10.92;100.00;95584.97;5051038;27;105393;-76
2023/10/22 02:16:04;;;;;;;0.50;0.50;;;;;;;10.91;100.00;95589.50;5051370;27;101980;-76
2023/10/22 02:18:39;;;;;;;1.43;0.50;;;;;;;10.92;100.00;95585.78;5051709;27;104864;-76
2023/10/22 02:21:12;;;;;;;0.53;0.53;;;;;;;10.97;100.00;95584.97;5052275;27;104803;-76
2023/10/22 02:23:41;;;;;;;0.80;0.50;;;;;;;10.95;100.00;95587.09;5056637;27;102019;-76
2023/10/22 02:26:11;;;;;;;0.70;0.53;;;;;;;10.98;100.00;95584.69;5050910;27;103959;-77
2023/10/22 02:28:55;;;;;;;0.57;0.50;;;;;;;10.92;100.00;95596.44;5051360;27;101952;-77
2023/10/22 02:31:33;;;;;;;0.50;0.50;;;;;;;10.96;100.00;95588.69;5052872;27;102760;-81
2023/10/22 02:37:05;;;;;;;3.03;0.50;;;;;;;10.97;100.00;95591.06;5041793;27;102370;-79
2023/10/22 02:39:33;;;;;;;1.40;0.57;;;;;;;11.00;100.00;95593.19;5051431;27;104720;-76
2023/10/22 02:42:00;;;;;;;1.10;0.30;;;;;;;11.05;100.00;95597.69;5050638;27;105251;-77
2023/10/22 02:44:28;;;;;;;0.47;0.47;;;;;;;11.11;100.00;95597.41;5051183;27;102107;-77
2023/10/22 02:46:56;;;;;;;0.50;0.50;;;;;;;11.12;100.00;95603.53;5053917;27;105593;-76
2023/10/22 02:49:23;;;;;;;0.40;0.40;;;;;;;11.10;100.00;95605.66;5051145;27;101842;-76
2023/10/22 02:51:50;;;;;;;0.47;0.47;;;;;;;11.12;100.00;95612.28;5051228;27;105915;-76
2023/10/22 02:54:19;;;;;;;1.20;0.50;;;;;;;11.09;100.00;95615.50;5050433;27;105805;-77
2023/10/22 02:57:00;;;;;;;0.40;0.40;;;;;;;11.08;100.00;95618.44;5051101;27;101871;-77
2023/10/22 02:59:31;;;;;;;0.40;0.40;;;;;;;11.03;100.00;95616.59;5052538;27;102624;-77
2023/10/22 03:02:10;;;;;;;0.93;0.60;;;;;;;11.10;100.00;95618.94;5049988;27;105868;-77
2023/10/22 03:04:37;;;;;;;0.70;0.43;;;;;;;11.06;100.00;95631.22;5049897;27;101903;-76
2023/10/22 03:07:07;;;;;;;0.40;0.40;;;;;;;11.06;100.00;95625.91;5050782;27;105165;-76
2023/10/22 03:09:40;;;;;;;0.80;0.80;;;;;;;11.07;100.00;95627.50;5055467;27;102701;-76
2023/10/22 03:12:12;;;;;;;0.87;0.80;;;;;;;11.07;100.00;95628.28;5052392;27;102659;-76
2023/10/22 03:14:51;;;;;;;0.70;0.70;;;;;;;11.08;100.00;95624.56;5051734;27;103496;-76
2023/10/22 03:17:28;;;;;;;2.47;1.60;;;;;;;11.05;100.00;95625.09;5050766;27;101877;-76
2023/10/22 03:19:55;;;;;;;2.70;1.30;;;;;;;11.12;100.00;95630.91;5050526;27;105862;-76
2023/10/22 03:22:25;;;;;;;1.90;1.40;;;;;;;11.11;100.00;95633.84;5049976;27;105414;-76
2023/10/22 03:24:55;;;;;;;1.67;1.10;;;;;;;11.11;100.00;95634.66;5050657;27;101877;-76
2023/10/22 03:27:22;;;;;;;1.00;0.90;;;;;;;11.18;100.00;95643.13;5050566;27;103713;-76
2023/10/22 03:30:10;;;;;;;0.90;0.67;;;;;;;11.14;100.00;95643.97;5049760;27;106269;-76
2023/10/22 03:32:38;;;;;;;1.57;0.80;;;;;;;11.15;100.00;95645.53;5053674;27;101722;-76
2023/10/22 03:35:06;;;;;;;1.10;1.00;;;;;;;11.18;100.00;95655.66;5049660;27;106077;-76
2023/10/22 03:37:38;;;;;;;0.80;0.80;;;;;;;11.22;100.00;95646.84;5050110;27;102027;-76
2023/10/22 03:40:09;;;;;;;1.10;0.50;;;;;;;11.20;100.00;95645.53;5050297;27;105662;-76
2023/10/22 03:42:37;;;;;;;0.87;0.60;;;;;;;11.19;100.00;95635.97;5049657;27;105255;-76
2023/10/22 03:45:12;;;;;;;0.50;0.50;;;;;;;11.17;100.00;95640.78;5051490;27;101919;-77
2023/10/22 03:47:45;;;;;;;0.93;0.60;;;;;;;11.17;100.00;95644.22;5050300;27;105780;-77
2023/10/22 03:50:30;;;;;;;1.47;0.80;;;;;;;11.12;100.00;95638.91;5049572;27;105728;-77
2023/10/22 03:53:01;;;;;;;2.00;0.50;;;;;;;11.19;100.00;95641.28;5050228;27;101956;-77
2023/10/22 03:55:34;;;;;;;1.40;0.40;;;;;;;11.19;100.00;95636.78;5053044;27;105320;-77
2023/10/22 03:58:12;;;;;;;0.40;0.40;;;;;;;11.17;100.00;95633.56;5051518;27;101831;-77
2023/10/22 04:00:49;;;;;;;0.40;0.40;;;;;;;11.15;100.00;95641.03;5051434;27;102584;-78
2023/10/22 04:03:26;;;;;;;0.50;0.37;;;;;;;11.14;100.00;95636.78;5048860;27;105286;-78
2023/10/22 04:05:59;;;;;;;2.30;0.40;;;;;;;11.11;100.00;95633.84;5049852;27;102057;-78
2023/10/22 04:08:31;;;;;;;0.73;0.50;;;;;;;11.10;100.00;95637.59;5050038;27;104876;-78
2023/10/22 04:11:08;;;;;;;0.40;0.40;;;;;;;11.11;100.00;95633.84;5050630;27;103070;-78
2023/10/22 04:13:59;;;;;;;0.40;0.30;;;;;;;11.07;100.00;95632.81;5051008;27;101858;-78
2023/10/22 04:16:29;;;;;;;0.40;0.40;;;;;;;11.07;100.00;95633.59;5052456;27;106201;-76
2023/10/22 04:18:56;;;;;;;0.40;0.40;;;;;;;11.08;100.00;95640.53;5049793;27;102256;-75
2023/10/22 04:21:23;;;;;;;0.93;0.30;;;;;;;11.09;100.00;95642.13;5050708;27;103532;-75
2023/10/22 04:23:51;;;;;;;0.47;0.40;;;;;;;11.10;100.00;95642.91;5048936;27;106077;-75
2023/10/22 04:26:18;;;;;;;0.30;0.30;;;;;;;11.09;100.00;95646.63;5050712;27;101913;-75
2023/10/22 04:28:47;;;;;;;0.53;0.37;;;;;;;11.11;100.00;95647.16;5049646;27;103616;-75
2023/10/22 04:31:14;;;;;;;0.30;0.30;;;;;;;11.08;100.00;95645.84;5050301;27;102998;-76
2023/10/22 04:33:43;;;;;;;0.40;0.40;;;;;;;11.10;100.00;95643.72;5050976;27;101823;-76
2023/10/22 04:36:15;;;;;;;0.60;0.60;;;;;;;11.08;100.00;95650.38;5050836;27;102786;-75
2023/10/22 04:38:43;;;;;;;0.97;0.40;;;;;;;11.12;100.00;95649.53;5052210;27;105316;-75
2023/10/22 04:41:11;;;;;;;0.50;0.50;;;;;;;11.12;100.00;95651.44;5049380;27;104205;-78
2023/10/22 04:43:39;;;;;;;1.07;0.50;;;;;;;11.09;100.00;95660.75;5048739;27;105058;-78
2023/10/22 04:46:06;;;;;;;0.73;0.40;;;;;;;11.01;100.00;95660.50;5049340;27;101962;-78
2023/10/22 04:48:33;;;;;;;0.50;0.50;;;;;;;10.99;100.00;95663.44;5049462;27;105674;-78
2023/10/22 04:51:06;;;;;;;1.20;0.70;;;;;;;11.02;100.00;95659.44;5050178;27;103743;-78
2023/10/22 04:53:33;;;;;;;1.43;0.33;;;;;;;11.00;100.00;95658.88;5049309;27;101900;-78
2023/10/22 04:56:00;;;;;;;2.43;0.43;;;;;;;11.02;100.00;95656.78;5049151;27;104141;-77
2023/10/22 04:58:28;;;;;;;0.73;0.40;;;;;;;11.00;100.00;95658.88;5048682;27;105143;-77
2023/10/22 05:00:55;;;;;;;0.90;0.50;;;;;;;10.96;100.00;95655.19;5052535;27;102026;-78
2023/10/22 05:03:24;;;;;;;0.83;0.57;;;;;;;10.98;100.00;95659.19;5048255;27;105874;-78
2023/10/22 05:05:54;;;;;;;0.50;0.50;;;;;;;10.98;100.00;95661.84;5048845;27;101901;-78
2023/10/22 05:08:26;;;;;;;1.60;0.60;;;;;;;11.01;100.00;95665.81;5048977;27;105215;-78
2023/10/22 05:10:55;;;;;;;0.60;0.60;;;;;;;11.02;100.00;95675.41;5048186;27;105727;-79
2023/10/22 05:13:26;;;;;;;1.40;1.10;;;;;;;11.02;100.00;95675.41;5048356;27;101930;-77
2023/10/22 05:15:56;;;;;;;0.93;0.90;;;;;;;11.04;100.00;95675.91;5048888;27;105315;-76
2023/10/22 05:18:25;;;;;;;1.23;0.77;;;;;;;11.06;100.00;95679.13;5048339;27;105213;-75
2023/10/22 05:21:04;;;;;;;0.57;0.57;;;;;;;11.05;100.00;95680.16;5050164;27;101888;-75
2023/10/22 05:23:41;;;;;;;0.50;0.50;;;;;;;11.06;100.00;95679.13;5050879;27;105028;-75
2023/10/22 05:26:09;;;;;;;0.40;0.40;;;;;;;11.09;100.00;95687.34;5048392;27;101930;-74
2023/10/22 05:28:37;;;;;;;1.17;0.60;;;;;;;11.11;100.00;95687.06;5048176;27;104183;-74
2023/10/22 05:31:12;;;;;;;0.40;0.40;;;;;;;11.06;100.00;95690.53;5048127;27;105437;-74
2023/10/22 05:33:39;;;;;;;0.43;0.40;;;;;;;11.07;100.00;95699.34;5050387;27;101797;-74
2023/10/22 05:36:14;;;;;;;1.33;0.60;;;;;;;11.07;100.00;95702.00;5048693;27;105606;-74
2023/10/22 05:38:42;;;;;;;0.50;0.50;;;;;;;11.10;100.00;95707.56;5047440;27;105136;-74
2023/10/22 05:41:10;;;;;;;0.60;0.60;;;;;;;11.17;100.00;95704.63;5048650;27;101848;-74
2023/10/22 05:43:36;;;;;;;1.30;0.57;;;;;;;11.12;100.00;95713.41;5048762;27;105202;-75
2023/10/22 05:46:07;;;;;;;0.50;0.50;;;;;;;11.15;100.00;95717.41;5051429;27;105458;-76
2023/10/22 05:48:36;;;;;;;0.83;0.60;;;;;;;11.17;100.00;95720.59;5049333;27;105563;-77
2023/10/22 05:51:03;;;;;;;0.60;0.50;;;;;;;11.19;100.00;95727.25;5050188;27;102926;-76
2023/10/22 05:53:31;;;;;;;0.40;0.40;;;;;;;11.21;100.00;95722.44;5049127;27;102282;-77
2023/10/22 05:55:59;;;;;;;2.53;0.40;;;;;;;11.23;100.00;95722.19;5049420;27;104938;-77
2023/10/22 05:58:27;;;;;;;0.40;0.40;;;;;;;11.27;100.00;95723.22;5048637;27;105486;-78
2023/10/22 06:00:54;;;;;;;0.60;0.50;;;;;;;11.30;100.00;95718.16;5049009;27;101893;-81
2023/10/22 06:03:21;;;;;;;0.70;0.60;;;;;;;11.34;100.00;95729.06;5049393;27;106033;-81
2023/10/22 06:05:48;;;;;;;1.17;0.63;;;;;;;11.35;100.00;95733.31;5048245;27;104069;-80
2023/10/22 06:08:16;;;;;;;0.60;0.60;;;;;;;11.33;100.00;95733.59;5051993;27;101900;-82
2023/10/22 06:10:44;;;;;;;0.60;0.47;;;;;;;11.37;100.00;95739.16;5048509;27;104732;-82
2023/10/22 06:13:12;;;;;;;0.60;0.60;;;;;;;11.34;100.00;95740.50;5049195;27;101880;-82
2023/10/22 06:15:40;;;;;;;0.70;0.70;;;;;;;11.36;100.00;95738.38;5049040;27;105515;-82
2023/10/22 06:18:08;;;;;;;1.23;0.70;;;;;;;11.40;100.00;95743.97;5048647;27;105574;-82
2023/10/22 06:20:35;;;;;;;0.60;0.60;;;;;;;11.45;100.00;95746.59;5050792;27;101811;-82
2023/10/22 06:23:03;;;;;;;1.30;1.20;;;;;;;11.49;100.00;95755.63;5048731;27;106752;-82
2023/10/22 06:25:31;;;;;;;0.60;0.60;;;;;;;11.50;100.00;95754.59;5048167;27;105607;-82
2023/10/22 06:27:59;;;;;;;1.10;0.77;;;;;;;11.55;100.00;95762.56;5052530;27;101934;-82
2023/10/22 06:30:27;;;;;;;1.10;1.10;;;;;;;11.55;100.00;95752.69;5048193;27;105812;-82
2023/10/22 06:32:56;;;;;;;2.23;1.40;;;;;;;11.59;100.00;95758.28;5050170;27;101811;-82
2023/10/22 06:35:23;;;;;;;1.50;1.37;;;;;;;11.58;100.00;95767.31;5048715;27;105330;-82
2023/10/22 06:37:53;;;;;;;1.23;1.13;;;;;;;11.56;100.00;95772.13;5049081;27;102864;-82
2023/10/22 06:40:20;;;;;;;0.60;0.60;;;;;;;11.57;100.00;95779.06;5051156;27;101858;-82
2023/10/22 06:42:48;;;;;;;1.77;1.00;;;;;;;11.59;100.00;95782.25;5052238;27;104994;-82
2023/10/22 06:45:15;;;;;;;0.90;0.90;;;;;;;11.61;100.00;95790.78;5051389;27;105917;-82
2023/10/22 06:47:44;;;;;;;2.00;1.80;;;;;;;11.58;100.00;95791.28;5052338;27;101991;-82
2023/10/22 06:50:13;;;;;;;1.17;0.97;;;;;;;11.60;100.00;95797.16;5054953;27;105583;-82
2023/10/22 06:52:41;;;;;;;1.27;0.70;;;;;;;11.63;100.00;95797.44;5051932;27;101934;-82
2023/10/22 06:55:09;;;;;;;1.33;0.83;;;;;;;11.63;100.00;95813.41;5052023;27;104927;-82
2023/10/22 06:57:36;;;;;;;0.60;0.60;;;;;;;11.65;100.00;95805.13;5051172;27;105506;-82
2023/10/22 07:00:04;;;;;;;0.30;0.30;;;;;;;11.66;100.00;95807.53;5051722;27;101893;-82
2023/10/22 07:02:34;;;;;;;0.70;0.40;;;;;;;11.70;100.00;95818.44;5051662;27;105089;-82
2023/10/22 07:05:02;;;;;;;0.50;0.50;;;;;;;11.80;100.00;95819.22;5047474;27;104837;-82
2023/10/22 07:07:29;;;;;;;0.50;0.50;;;;;;;11.85;100.00;95816.56;5035149;27;101681;-82
2023/10/22 07:09:57;;;;;;;0.60;0.60;;;;;;;11.83;100.00;95817.88;5053205;27;102523;-82
2023/10/22 07:12:26;;;;;;;1.03;0.50;;;;;;;11.86;100.00;95822.66;5037742;27;105364;-82
2023/10/22 07:14:55;;;;;;;0.37;0.37;;;;;;;11.88;100.00;95828.53;5052921;27;102585;-82
2023/10/22 07:17:22;;;;;;;0.33;0.33;;;;;;;11.95;100.00;95829.03;5034200;27;105164;-82
2023/10/22 07:19:50;;;;;;;4.27;3.57;;;;;;;11.96;100.00;95827.97;5034522;27;102009;-82
2023/10/22 07:22:20;;;;;;;4.97;2.67;;;;;;;11.98;100.00;95825.81;5034502;27;105729;-82
2023/10/22 07:24:50;;;;;;;1.90;1.70;;;;;;;12.10;100.00;95828.97;5034048;27;105002;-82
2023/10/22 07:27:17;;;;;;;1.30;0.70;;;;;;;12.10;100.00;95828.97;5034391;27;102094;-82
2023/10/22 07:29:44;;;;;;;0.80;0.80;;;;;;;12.19;100.00;95832.66;5034723;27;104811;-82
2023/10/22 07:32:11;;;;;;;1.13;0.60;;;;;;;12.20;100.00;95835.06;5033917;27;105689;-82
2023/10/22 07:34:38;;;;;;;0.60;0.60;;;;;;;12.24;100.00;95837.97;5037818;27;102005;-82
2023/10/22 07:37:05;;;;;;;0.60;0.60;;;;;;;12.30;100.00;95832.34;5033507;27;105460;-82
2023/10/22 07:39:34;;;;;;;0.70;0.50;;;;;;;12.35;100.00;95837.66;5034520;27;101899;-82
2023/10/22 07:42:01;;;;;;;0.50;0.50;;;;;;;12.44;100.00;95840.53;5034185;27;105368;-82
2023/10/22 07:44:28;;;;;;;0.50;0.50;;;;;;;12.42;100.00;95842.69;5033563;27;105289;-82
2023/10/22 07:46:55;;;;;;;0.73;0.50;;;;;;;12.47;100.00;95839.97;5034247;27;101907;-82
2023/10/22 07:49:22;;;;;;;0.60;0.50;;;;;;;12.47;100.00;95855.97;5034076;27;105166;-82
2023/10/22 07:51:49;;;;;;;0.50;0.50;;;;;;;12.48;100.00;95857.59;5033229;27;103998;-82
2023/10/22 07:54:16;;;;;;;0.50;0.50;;;;;;;12.52;100.00;95858.63;5034248;27;101978;-82
2023/10/22 07:56:45;;;;;;;0.50;0.50;;;;;;;12.62;100.00;95864.72;5037185;27;105488;-78
2023/10/22 07:59:18;;;;;;;1.17;0.70;;;;;;;12.67;100.00;95861.22;5052277;27;101848;-79
2023/10/22 08:01:50;;;;;;;0.60;0.60;;;;;;;12.78;100.00;95868.09;5052552;27;102564;-78
2023/10/22 08:04:20;;;;;;;1.00;0.60;;;;;;;12.69;100.00;95875.06;5033321;27;105683;-78
2023/10/22 08:06:49;;;;;;;2.57;0.77;;;;;;;12.69;100.00;95867.88;5033906;27;101787;-78
2023/10/22 08:09:32;;;;;;;0.77;0.70;;;;;;;12.72;100.00;95875.34;5033799;27;105091;-79
2023/10/22 08:12:00;;;;;;;0.90;0.80;;;;;;;12.78;100.00;95874.22;5033560;27;105485;-80
2023/10/22 08:14:27;;;;;;;0.70;0.70;;;;;;;12.87;100.00;95877.88;5033916;27;101972;-78
2023/10/22 08:16:54;;;;;;;1.13;0.60;;;;;;;12.99;100.00;95880.25;5033781;27;105672;-79
2023/10/22 08:19:21;;;;;;;0.60;0.60;;;;;;;12.96;100.00;95886.13;5036240;27;101905;-78
2023/10/22 08:21:48;;;;;;;0.50;0.50;;;;;;;12.92;100.00;95885.09;5033681;27;104029;-79
2023/10/22 08:24:15;;;;;;;0.93;0.60;;;;;;;12.84;100.00;95889.13;5051317;27;102792;-79
2023/10/22 08:26:42;;;;;;;0.50;0.50;;;;;;;12.89;100.00;95896.28;5033516;27;102129;-79
2023/10/22 08:29:10;;;;;;;0.50;0.50;;;;;;;12.91;100.00;95894.94;5033599;27;105523;-79
2023/10/22 08:31:37;;;;;;;0.47;0.40;;;;;;;12.92;100.00;95893.88;5032675;27;105462;-79
2023/10/22 08:34:04;;;;;;;0.60;0.60;;;;;;;13.06;100.00;95902.09;5051829;27;101846;-78
2023/10/22 08:36:37;;;;;;;0.50;0.50;;;;;;;13.03;100.00;95897.31;5033195;27;105562;-79
2023/10/22 08:39:10;;;;;;;0.50;0.50;;;;;;;13.11;100.00;95910.06;5036113;27;105579;-79
2023/10/22 08:41:46;;;;;;;0.60;0.60;;;;;;;13.15;100.00;95905.78;5033327;27;105648;-79
2023/10/22 08:44:15;;;;;;;0.50;0.43;;;;;;;13.28;100.00;95907.81;5032777;27;105358;-79
2023/10/22 08:46:42;;;;;;;0.77;0.50;;;;;;;13.24;100.00;95909.47;5033178;27;101992;-79
2023/10/22 08:49:17;;;;;;;1.53;0.50;;;;;;;13.29;100.00;95909.38;5033234;27;105425;-92
2023/10/22 08:51:44;;;;;;;0.57;0.57;;;;;;;13.40;100.00;95910.94;5032817;27;105910;-79
2023/10/22 08:54:11;;;;;;;0.97;0.67;;;;;;;13.61;100.00;95915.00;5033253;27;101906;-79
2023/10/22 08:56:38;;;;;;;0.50;0.50;;;;;;;13.59;100.00;95914.50;5032888;27;105899;-79
2023/10/22 08:59:08;;;;;;;1.27;0.43;;;;;;;13.62;100.00;95916.63;5032381;27;105423;-79
2023/10/22 09:01:38;;;;;;;0.70;0.70;;;;;;;13.90;100.00;95913.16;5035450;27;101943;-79
2023/10/22 09:04:05;;;;;;;0.50;0.50;;;;;;;13.88;100.00;95909.97;5032370;27;105399;-79
2023/10/22 09:06:32;;;;;;;0.40;0.40;;;;;;;14.01;100.00;95904.75;5033072;27;102431;-79
2023/10/22 09:09:00;;;;;;;0.53;0.50;;;;;;;14.25;100.00;95915.50;5033056;27;105369;-79
2023/10/22 09:11:27;;;;;;;0.73;0.70;;;;;;;14.41;100.00;95911.56;5032365;27;105462;-79
2023/10/22 09:13:54;;;;;;;0.50;0.50;;;;;;;14.46;100.00;95908.81;5032826;27;101990;-79
2023/10/22 09:16:33;;;;;;;7.10;0.73;;;;;;;14.37;100.00;95910.53;5032895;27;105833;-79
2023/10/22 09:19:02;;;;;;;0.73;0.60;;;;;;;14.43;100.00;95917.41;5032179;27;105421;-79
2023/10/22 09:21:42;;;;;;;1.07;0.60;;;;;;;14.54;100.00;95913.53;5050796;27;101844;-79
2023/10/22 09:24:10;;;;;;;1.23;1.10;;;;;;;14.68;100.00;95922.47;5035490;27;106144;-79
2023/10/22 09:26:42;;;;;;;0.60;0.60;;;;;;;14.63;100.00;95922.53;5032523;27;101910;-79
2023/10/22 09:29:09;;;;;;;0.40;0.40;;;;;;;14.79;100.00;95922.06;5032335;27;105463;-79
2023/10/22 09:31:39;;;;;;;0.30;0.30;;;;;;;14.69;100.00;95919.50;5031840;27;105873;-79
2023/10/22 09:34:24;;;;;;;0.30;0.30;;;;;;;14.81;100.00;95914.53;5032729;27;101703;-78
2023/10/22 09:36:52;;;;;;;0.43;0.43;;;;;;;14.95;100.00;95918.09;5050665;27;102504;-77
2023/10/22 09:39:35;;;;;;;0.67;0.50;;;;;;;14.96;100.00;95916.19;5050428;27;102770;-78
2023/10/22 09:42:03;;;;;;;0.30;0.30;;;;;;;14.90;100.00;95914.69;5032470;27;101947;-75
2023/10/22 09:44:31;;;;;;;0.30;0.30;;;;;;;14.83;100.00;95920.38;5032496;27;104229;-79
2023/10/22 09:47:00;;;;;;;0.40;0.40;;;;;;;14.70;100.00;95922.97;5053678;27;102791;-74
2023/10/22 09:49:33;;;;;;;0.70;0.70;;;;;;;14.89;100.00;95923.81;5032577;27;105039;-77
2023/10/22 09:52:03;;;;;;;4.63;0.60;;;;;;;14.87;100.00;95924.09;5031936;27;104633;-77
2023/10/22 09:54:39;;;;;;;0.40;0.40;;;;;;;15.21;100.00;95929.25;5032318;27;101832;-78
2023/10/22 09:57:09;;;;;;;0.40;0.40;;;;;;;15.18;100.00;95929.81;5032433;27;104799;-80
2023/10/22 10:03:24;;;;;;;0.50;0.50;;;;;;;15.18;100.00;95927.13;5043312;27;102156;-79
2023/10/22 10:05:53;;;;;;;0.40;0.40;;;;;;;15.25;100.00;95916.84;5032309;27;105559;-77
2023/10/22 10:08:21;;;;;;;0.60;0.40;;;;;;;15.29;100.00;95921.34;5049515;27;103036;-77
2023/10/22 10:10:49;;;;;;;0.40;0.40;;;;;;;15.40;100.00;95920.13;5035445;27;101905;-77
2023/10/22 10:13:16;;;;;;;0.50;0.50;;;;;;;15.51;100.00;95923.44;5031899;27;105527;-77
2023/10/22 10:15:43;;;;;;;0.50;0.50;;;;;;;15.71;100.00;95917.78;5035236;27;102200;-77
2023/10/22 10:18:10;;;;;;;0.50;0.50;;;;;;;15.84;100.00;95917.81;5053927;27;102960;-77
2023/10/22 10:20:39;;;;;;;0.63;0.60;;;;;;;16.15;100.00;95904.66;5034695;27;105758;-77
2023/10/22 10:23:19;;;;;;;0.83;0.80;;;;;;;16.14;100.00;95911.09;5035575;27;102023;-77
2023/10/22 10:25:46;;;;;;;0.50;0.50;;;;;;;16.16;100.00;95900.88;5035479;27;105164;-77
2023/10/22 10:28:13;;;;;;;0.50;0.50;;;;;;;15.99;100.00;95906.00;5052918;27;103137;-77
2023/10/22 10:30:41;;;;;;;0.43;0.43;;;;;;;16.14;100.00;95903.06;5038856;27;101943;-77
2023/10/22 10:33:12;;;;;;;0.63;0.40;;;;;;;16.13;100.00;95904.16;5034774;27;105622;-77
2023/10/22 10:35:47;;;;;;;1.17;0.60;;;;;;;16.27;100.00;95902.25;5035274;27;102396;-77
2023/10/22 10:38:28;;;;;;;2.10;0.70;;;;;;;16.44;100.00;95889.88;5034868;27;105072;-78
2023/10/22 10:40:56;;;;;;;0.50;0.50;;;;;;;16.61;100.00;95890.06;5034574;27;105827;-78
2023/10/22 10:44:00;;;;;;;0.77;0.53;;;;;;;16.66;100.00;95889.16;5035151;27;102095;-78
2023/10/22 10:46:28;;;;;;;1.10;0.80;;;;;;;16.60;100.00;95893.84;5035036;27;105143;-78
2023/10/22 10:48:55;;;;;;;0.40;0.40;;;;;;;16.73;100.00;95892.25;5052861;27;103051;-74
2023/10/22 10:51:24;;;;;;;0.63;0.50;;;;;;;16.82;100.00;95895.81;5035133;27;102048;-77
2023/10/22 10:54:19;;;;;;;1.17;0.50;;;;;;;17.08;100.00;95894.97;5037783;27;104153;-77
2023/10/22 10:56:48;;;;;;;0.50;0.50;;;;;;;17.30;100.00;95891.50;5035028;27;101917;-77
2023/10/22 10:59:35;;;;;;;1.50;0.60;;;;;;;17.63;100.00;95895.56;5034693;27;104201;-78
2023/10/22 11:02:06;;;;;;;0.63;0.30;;;;;;;17.37;100.00;95884.63;5034164;27;103145;-78
2023/10/22 11:04:34;;;;;;;0.43;0.30;;;;;;;17.46;100.00;95890.06;5052961;27;101894;-78
2023/10/22 11:07:01;;;;;;;0.30;0.30;;;;;;;17.55;100.00;95896.31;5034773;27;104122;-78
2023/10/22 11:09:31;;;;;;;0.50;0.50;;;;;;;17.78;100.00;95887.94;5034131;27;106051;-77
2023/10/22 11:12:00;;;;;;;0.60;0.60;;;;;;;18.10;100.00;95889.53;5034637;27;101861;-77
2023/10/22 11:14:27;;;;;;;0.97;0.70;;;;;;;18.10;100.00;95884.94;5034761;27;105124;-77
2023/10/22 11:16:56;;;;;;;0.60;0.43;;;;;;;18.23;100.00;95885.94;5037508;27;105849;-77
2023/10/22 11:19:24;;;;;;;0.40;0.30;;;;;;;18.08;100.00;95880.97;5034541;27;105303;-77
2023/10/22 11:21:52;;;;;;;1.00;0.40;;;;;;;18.06;100.00;95880.50;5034087;27;106601;-77
2023/10/22 11:24:20;;;;;;;0.80;0.40;;;;;;;18.28;100.00;95875.03;5034276;27;101935;-77
2023/10/22 11:26:50;;;;;;;0.43;0.33;;;;;;;18.18;99.91;95873.44;5034228;27;105290;-77
2023/10/22 11:29:18;;;;;;;0.97;0.37;;;;;;;17.52;97.01;95872.72;5033845;27;104988;-77
2023/10/22 11:31:53;;;;;;;0.37;0.30;;;;;;;17.90;93.19;95865.84;5034586;27;102059;-77
2023/10/22 11:34:20;;;;;;;0.57;0.40;;;;;;;17.55;94.53;95874.81;5034346;27;105091;-77
2023/10/22 11:36:47;;;;;;;0.93;0.60;;;;;;;17.57;94.11;95878.78;5033286;27;105890;-77
2023/10/22 11:39:18;;;;;;;1.23;0.50;;;;;;;17.35;87.18;95872.56;5037790;27;102101;-77
2023/10/22 11:41:46;;;;;;;0.40;0.40;;;;;;;17.89;88.38;95864.25;5033551;27;105748;-77
2023/10/22 11:47:25;;;;;;;1.13;0.60;;;;;;;18.62;96.11;95867.91;5092547;27;101490;-79
2023/10/22 11:49:52;;;;;;;0.33;0.33;;;;;;;18.66;77.84;95866.19;5086795;27;103886;-79
2023/10/22 11:52:37;;;;;;;1.17;0.70;;;;;;;18.61;79.97;95866.31;5088819;27;101831;-79
2023/10/22 11:55:06;;;;;;;0.77;0.30;;;;;;;18.77;77.21;95880.13;5087386;27;105791;-79
2023/10/22 11:57:33;;;;;;;0.73;0.20;;;;;;;18.02;81.44;95868.75;5086681;27;105239;-79
2023/10/22 12:00:00;;;;;;;0.50;0.33;;;;;;;18.76;89.58;95873.16;5088877;27;101833;-79
2023/10/22 12:02:28;;;;;;;0.43;0.43;;;;;;;19.04;76.94;95869.09;5087129;27;105036;-79
2023/10/22 12:04:56;;;;;;;0.30;0.30;;;;;;;19.18;83.18;95877.84;5086354;27;106159;-79
2023/10/22 12:07:23;;;;;;;0.50;0.40;;;;;;;18.70;86.51;95877.91;5090895;27;101941;-79
2023/10/22 12:09:50;;;;;;;0.60;0.30;;;;;;;19.04;83.70;95875.28;5086363;27;105344;-79
2023/10/22 12:12:17;;;;;;;0.63;0.60;;;;;;;19.08;84.71;95872.75;5104305;27;101891;-79
2023/10/22 12:14:44;;;;;;;0.90;0.57;;;;;;;19.58;80.06;95869.28;5086860;27;105454;-79
2023/10/22 12:17:11;;;;;;;0.73;0.60;;;;;;;19.87;79.37;95873.97;5086426;27;105194;-79